sensor_id;sensor_type;location;lat;lon;timestamp;P1;durP1;ratioP1;P2;durP2;ratioP2
42832;SDS011;28479;51.478;5.692;2022-07-11T00:00:06;3.78;;;2.47;;
42832;SDS011;28479;51.478;5.692;2022-07-11T00:02:34;6.22;;;2.88;;
42832;SDS011;28479;51.478;5.692;2022-07-11T00:05:00;5.47;;;2.78;;
42832;SDS011;28479;51.478;5.692;2022-07-11T00:07:27;6.03;;;3.03;;
42832;SDS011;28479;51.478;5.692;2022-07-11T00:09:52;6.63;;;3.33;;
42832;SDS011;28479;51.478;5.692;2022-07-11T00:12:18;8.57;;;3.78;;
42832;SDS011;28479;51.478;5.692;2022-07-11T00:14:46;5.57;;;3.25;;
42832;SDS011;28479;51.478;5.692;2022-07-11T00:17:12;5.85;;;3.33;;
42832;SDS011;28479;51.478;5.692;2022-07-11T00:19:38;8.35;;;3.55;;
42832;SDS011;28479;51.478;5.692;2022-07-11T00:22:04;4.43;;;2.78;;
42832;SDS011;28479;51.478;5.692;2022-07-11T00:24:30;7.18;;;3.08;;
42832;SDS011;28479;51.478;5.692;2022-07-11T00:26:56;5.85;;;3.60;;
42832;SDS011;28479;51.478;5.692;2022-07-11T00:29:22;11.10;;;4.10;;
42832;SDS011;28479;51.478;5.692;2022-07-11T00:31:47;11.63;;;3.70;;
42832;SDS011;28479;51.478;5.692;2022-07-11T00:34:13;6.85;;;3.63;;
42832;SDS011;28479;51.478;5.692;2022-07-11T00:36:39;6.00;;;3.60;;
42832;SDS011;28479;51.478;5.692;2022-07-11T00:39:05;4.78;;;3.00;;
42832;SDS011;28479;51.478;5.692;2022-07-11T00:41:31;11.77;;;3.47;;
42832;SDS011;28479;51.478;5.692;2022-07-11T00:43:58;5.60;;;4.05;;
42832;SDS011;28479;51.478;5.692;2022-07-11T00:46:25;9.93;;;4.00;;
42832;SDS011;28479;51.478;5.692;2022-07-11T00:48:52;6.50;;;4.00;;
42832;SDS011;28479;51.478;5.692;2022-07-11T00:51:18;7.60;;;4.45;;
42832;SDS011;28479;51.478;5.692;2022-07-11T00:53:48;8.80;;;3.97;;
42832;SDS011;28479;51.478;5.692;2022-07-11T00:56:17;6.10;;;3.70;;
42832;SDS011;28479;51.478;5.692;2022-07-11T00:58:49;7.30;;;4.10;;
42832;SDS011;28479;51.478;5.692;2022-07-11T01:01:16;7.00;;;4.57;;
42832;SDS011;28479;51.478;5.692;2022-07-11T01:03:43;14.27;;;4.35;;
42832;SDS011;28479;51.478;5.692;2022-07-11T01:06:09;8.68;;;3.95;;
42832;SDS011;28479;51.478;5.692;2022-07-11T01:08:35;11.63;;;4.28;;
42832;SDS011;28479;51.478;5.692;2022-07-11T01:11:03;6.32;;;3.55;;
42832;SDS011;28479;51.478;5.692;2022-07-11T01:13:30;6.13;;;3.80;;
42832;SDS011;28479;51.478;5.692;2022-07-11T01:16:09;5.22;;;3.75;;
42832;SDS011;28479;51.478;5.692;2022-07-11T01:18:45;13.45;;;4.15;;
42832;SDS011;28479;51.478;5.692;2022-07-11T01:21:23;8.43;;;4.28;;
42832;SDS011;28479;51.478;5.692;2022-07-11T01:23:55;5.80;;;3.20;;
42832;SDS011;28479;51.478;5.692;2022-07-11T01:26:22;9.02;;;4.10;;
42832;SDS011;28479;51.478;5.692;2022-07-11T01:28:48;6.45;;;3.30;;
42832;SDS011;28479;51.478;5.692;2022-07-11T01:31:15;11.05;;;4.05;;
42832;SDS011;28479;51.478;5.692;2022-07-11T01:33:40;10.50;;;4.50;;
42832;SDS011;28479;51.478;5.692;2022-07-11T01:36:06;8.65;;;4.40;;
42832;SDS011;28479;51.478;5.692;2022-07-11T01:38:32;9.13;;;3.90;;
42832;SDS011;28479;51.478;5.692;2022-07-11T01:40:58;6.25;;;3.75;;
42832;SDS011;28479;51.478;5.692;2022-07-11T01:43:23;7.07;;;3.83;;
42832;SDS011;28479;51.478;5.692;2022-07-11T01:45:50;11.60;;;5.05;;
42832;SDS011;28479;51.478;5.692;2022-07-11T01:48:17;7.82;;;4.35;;
42832;SDS011;28479;51.478;5.692;2022-07-11T01:50:43;5.78;;;3.75;;
42832;SDS011;28479;51.478;5.692;2022-07-11T01:53:08;7.35;;;3.95;;
42832;SDS011;28479;51.478;5.692;2022-07-11T01:55:34;10.90;;;4.28;;
42832;SDS011;28479;51.478;5.692;2022-07-11T01:58:00;9.40;;;4.97;;
42832;SDS011;28479;51.478;5.692;2022-07-11T02:00:26;10.57;;;5.45;;
42832;SDS011;28479;51.478;5.692;2022-07-11T02:02:51;10.85;;;5.05;;
42832;SDS011;28479;51.478;5.692;2022-07-11T02:05:17;14.63;;;6.20;;
42832;SDS011;28479;51.478;5.692;2022-07-11T02:07:43;11.43;;;4.75;;
42832;SDS011;28479;51.478;5.692;2022-07-11T02:10:27;7.45;;;4.72;;
42832;SDS011;28479;51.478;5.692;2022-07-11T02:12:57;11.00;;;4.60;;
42832;SDS011;28479;51.478;5.692;2022-07-11T02:15:24;6.93;;;4.60;;
42832;SDS011;28479;51.478;5.692;2022-07-11T02:17:50;11.23;;;5.55;;
42832;SDS011;28479;51.478;5.692;2022-07-11T02:20:16;9.43;;;5.18;;
42832;SDS011;28479;51.478;5.692;2022-07-11T02:22:43;8.95;;;4.63;;
42832;SDS011;28479;51.478;5.692;2022-07-11T02:25:08;9.55;;;4.43;;
42832;SDS011;28479;51.478;5.692;2022-07-11T02:27:34;11.60;;;4.57;;
42832;SDS011;28479;51.478;5.692;2022-07-11T02:30:00;9.45;;;4.28;;
42832;SDS011;28479;51.478;5.692;2022-07-11T02:32:25;8.57;;;4.53;;
42832;SDS011;28479;51.478;5.692;2022-07-11T02:34:51;8.73;;;4.10;;
42832;SDS011;28479;51.478;5.692;2022-07-11T02:37:18;12.57;;;5.22;;
42832;SDS011;28479;51.478;5.692;2022-07-11T02:39:44;11.75;;;4.60;;
42832;SDS011;28479;51.478;5.692;2022-07-11T02:42:10;10.63;;;3.78;;
42832;SDS011;28479;51.478;5.692;2022-07-11T02:44:35;8.15;;;4.57;;
42832;SDS011;28479;51.478;5.692;2022-07-11T02:47:01;11.50;;;4.60;;
42832;SDS011;28479;51.478;5.692;2022-07-11T02:49:27;9.57;;;4.65;;
42832;SDS011;28479;51.478;5.692;2022-07-11T02:51:53;10.05;;;4.95;;
42832;SDS011;28479;51.478;5.692;2022-07-11T02:54:19;7.38;;;4.70;;
42832;SDS011;28479;51.478;5.692;2022-07-11T02:56:45;5.57;;;4.20;;
42832;SDS011;28479;51.478;5.692;2022-07-11T02:59:10;10.32;;;4.25;;
42832;SDS011;28479;51.478;5.692;2022-07-11T03:01:36;5.80;;;3.40;;
42832;SDS011;28479;51.478;5.692;2022-07-11T03:04:02;8.48;;;4.10;;
42832;SDS011;28479;51.478;5.692;2022-07-11T03:06:27;7.03;;;4.05;;
42832;SDS011;28479;51.478;5.692;2022-07-11T03:08:53;8.95;;;3.08;;
42832;SDS011;28479;51.478;5.692;2022-07-11T03:11:18;5.30;;;3.15;;
42832;SDS011;28479;51.478;5.692;2022-07-11T03:13:44;10.50;;;2.88;;
42832;SDS011;28479;51.478;5.692;2022-07-11T03:16:10;7.18;;;2.80;;
42832;SDS011;28479;51.478;5.692;2022-07-11T03:18:36;6.68;;;3.45;;
42832;SDS011;28479;51.478;5.692;2022-07-11T03:21:01;6.07;;;2.90;;
42832;SDS011;28479;51.478;5.692;2022-07-11T03:23:27;12.20;;;3.70;;
42832;SDS011;28479;51.478;5.692;2022-07-11T03:25:53;7.22;;;3.10;;
42832;SDS011;28479;51.478;5.692;2022-07-11T03:28:19;6.63;;;3.47;;
42832;SDS011;28479;51.478;5.692;2022-07-11T03:30:45;5.70;;;3.38;;
42832;SDS011;28479;51.478;5.692;2022-07-11T03:33:10;5.25;;;3.03;;
42832;SDS011;28479;51.478;5.692;2022-07-11T03:35:36;10.85;;;3.78;;
42832;SDS011;28479;51.478;5.692;2022-07-11T03:38:11;7.22;;;3.22;;
42832;SDS011;28479;51.478;5.692;2022-07-11T03:40:37;6.70;;;2.90;;
42832;SDS011;28479;51.478;5.692;2022-07-11T03:43:04;8.60;;;3.17;;
42832;SDS011;28479;51.478;5.692;2022-07-11T03:45:29;5.18;;;2.78;;
42832;SDS011;28479;51.478;5.692;2022-07-11T03:47:55;3.83;;;2.65;;
42832;SDS011;28479;51.478;5.692;2022-07-11T03:50:20;11.90;;;3.05;;
42832;SDS011;28479;51.478;5.692;2022-07-11T03:52:46;5.28;;;3.20;;
42832;SDS011;28479;51.478;5.692;2022-07-11T03:55:12;7.80;;;3.47;;
42832;SDS011;28479;51.478;5.692;2022-07-11T03:57:37;5.03;;;2.95;;
42832;SDS011;28479;51.478;5.692;2022-07-11T04:00:04;11.27;;;3.15;;
42832;SDS011;28479;51.478;5.692;2022-07-11T04:02:32;11.98;;;2.97;;
42832;SDS011;28479;51.478;5.692;2022-07-11T04:04:58;5.50;;;2.75;;
42832;SDS011;28479;51.478;5.692;2022-07-11T04:07:23;4.60;;;2.63;;
42832;SDS011;28479;51.478;5.692;2022-07-11T04:09:49;5.22;;;2.70;;
42832;SDS011;28479;51.478;5.692;2022-07-11T04:12:15;3.90;;;2.63;;
42832;SDS011;28479;51.478;5.692;2022-07-11T04:14:42;6.65;;;3.20;;
42832;SDS011;28479;51.478;5.692;2022-07-11T04:17:08;5.28;;;2.65;;
42832;SDS011;28479;51.478;5.692;2022-07-11T04:19:34;8.60;;;2.53;;
42832;SDS011;28479;51.478;5.692;2022-07-11T04:22:00;3.30;;;2.22;;
42832;SDS011;28479;51.478;5.692;2022-07-11T04:24:25;5.22;;;2.97;;
42832;SDS011;28479;51.478;5.692;2022-07-11T04:26:51;5.63;;;2.95;;
42832;SDS011;28479;51.478;5.692;2022-07-11T04:29:16;7.78;;;3.22;;
42832;SDS011;28479;51.478;5.692;2022-07-11T04:31:42;5.25;;;2.80;;
42832;SDS011;28479;51.478;5.692;2022-07-11T04:34:08;13.57;;;2.90;;
42832;SDS011;28479;51.478;5.692;2022-07-11T04:36:33;8.25;;;2.72;;
42832;SDS011;28479;51.478;5.692;2022-07-11T04:38:59;7.30;;;2.92;;
42832;SDS011;28479;51.478;5.692;2022-07-11T04:41:24;4.22;;;2.53;;
42832;SDS011;28479;51.478;5.692;2022-07-11T04:43:50;5.10;;;2.90;;
42832;SDS011;28479;51.478;5.692;2022-07-11T04:46:16;5.10;;;2.42;;
42832;SDS011;28479;51.478;5.692;2022-07-11T04:48:41;5.28;;;2.42;;
42832;SDS011;28479;51.478;5.692;2022-07-11T04:51:07;2.72;;;2.10;;
42832;SDS011;28479;51.478;5.692;2022-07-11T04:53:33;5.55;;;2.40;;
42832;SDS011;28479;51.478;5.692;2022-07-11T04:55:59;7.78;;;2.85;;
42832;SDS011;28479;51.478;5.692;2022-07-11T04:58:24;5.40;;;2.08;;
42832;SDS011;28479;51.478;5.692;2022-07-11T05:00:50;8.65;;;2.28;;
42832;SDS011;28479;51.478;5.692;2022-07-11T05:03:16;5.45;;;2.50;;
42832;SDS011;28479;51.478;5.692;2022-07-11T05:05:44;4.53;;;1.90;;
42832;SDS011;28479;51.478;5.692;2022-07-11T05:08:09;5.63;;;2.30;;
42832;SDS011;28479;51.478;5.692;2022-07-11T05:10:35;3.58;;;2.00;;
42832;SDS011;28479;51.478;5.692;2022-07-11T05:13:01;6.72;;;2.70;;
42832;SDS011;28479;51.478;5.692;2022-07-11T05:15:27;4.80;;;2.60;;
42832;SDS011;28479;51.478;5.692;2022-07-11T05:17:53;5.22;;;1.95;;
42832;SDS011;28479;51.478;5.692;2022-07-11T05:20:21;9.40;;;2.33;;
42832;SDS011;28479;51.478;5.692;2022-07-11T05:22:47;3.30;;;2.17;;
42832;SDS011;28479;51.478;5.692;2022-07-11T05:25:12;4.57;;;2.55;;
42832;SDS011;28479;51.478;5.692;2022-07-11T05:27:38;3.92;;;1.65;;
42832;SDS011;28479;51.478;5.692;2022-07-11T05:30:04;4.82;;;1.88;;
42832;SDS011;28479;51.478;5.692;2022-07-11T05:32:30;3.45;;;1.83;;
42832;SDS011;28479;51.478;5.692;2022-07-11T05:34:56;2.65;;;1.50;;
42832;SDS011;28479;51.478;5.692;2022-07-11T05:37:23;4.85;;;2.10;;
42832;SDS011;28479;51.478;5.692;2022-07-11T05:39:49;5.90;;;2.20;;
42832;SDS011;28479;51.478;5.692;2022-07-11T05:42:15;3.45;;;1.95;;
42832;SDS011;28479;51.478;5.692;2022-07-11T05:44:41;1.88;;;1.67;;
42832;SDS011;28479;51.478;5.692;2022-07-11T05:47:08;3.00;;;1.85;;
42832;SDS011;28479;51.478;5.692;2022-07-11T05:49:33;4.45;;;2.08;;
42832;SDS011;28479;51.478;5.692;2022-07-11T05:51:59;2.30;;;1.67;;
42832;SDS011;28479;51.478;5.692;2022-07-11T05:54:25;3.47;;;2.28;;
42832;SDS011;28479;51.478;5.692;2022-07-11T05:56:51;4.15;;;2.05;;
42832;SDS011;28479;51.478;5.692;2022-07-11T05:59:17;4.30;;;1.73;;
42832;SDS011;28479;51.478;5.692;2022-07-11T06:01:42;4.50;;;2.72;;
42832;SDS011;28479;51.478;5.692;2022-07-11T06:04:08;3.58;;;2.22;;
42832;SDS011;28479;51.478;5.692;2022-07-11T06:06:34;3.15;;;2.22;;
42832;SDS011;28479;51.478;5.692;2022-07-11T06:08:59;5.65;;;2.22;;
42832;SDS011;28479;51.478;5.692;2022-07-11T06:11:25;6.30;;;3.00;;
42832;SDS011;28479;51.478;5.692;2022-07-11T06:13:51;7.15;;;2.83;;
42832;SDS011;28479;51.478;5.692;2022-07-11T06:16:17;8.50;;;3.35;;
42832;SDS011;28479;51.478;5.692;2022-07-11T06:18:42;9.18;;;3.05;;
42832;SDS011;28479;51.478;5.692;2022-07-11T06:21:09;4.22;;;2.80;;
42832;SDS011;28479;51.478;5.692;2022-07-11T06:23:34;8.77;;;2.88;;
42832;SDS011;28479;51.478;5.692;2022-07-11T06:26:00;9.90;;;3.05;;
42832;SDS011;28479;51.478;5.692;2022-07-11T06:28:26;7.00;;;2.85;;
42832;SDS011;28479;51.478;5.692;2022-07-11T06:30:52;4.85;;;2.70;;
42832;SDS011;28479;51.478;5.692;2022-07-11T06:33:18;5.53;;;2.58;;
42832;SDS011;28479;51.478;5.692;2022-07-11T06:35:44;2.60;;;1.92;;
42832;SDS011;28479;51.478;5.692;2022-07-11T06:38:14;6.22;;;2.30;;
42832;SDS011;28479;51.478;5.692;2022-07-11T06:40:40;5.88;;;2.33;;
42832;SDS011;28479;51.478;5.692;2022-07-11T06:43:10;18.83;;;2.67;;
42832;SDS011;28479;51.478;5.692;2022-07-11T06:45:37;3.95;;;2.35;;
42832;SDS011;28479;51.478;5.692;2022-07-11T06:48:03;2.30;;;1.95;;
42832;SDS011;28479;51.478;5.692;2022-07-11T06:50:30;5.32;;;3.13;;
42832;SDS011;28479;51.478;5.692;2022-07-11T06:52:56;5.85;;;2.50;;
42832;SDS011;28479;51.478;5.692;2022-07-11T06:55:22;7.70;;;2.40;;
42832;SDS011;28479;51.478;5.692;2022-07-11T06:57:47;4.15;;;2.67;;
42832;SDS011;28479;51.478;5.692;2022-07-11T07:00:15;4.70;;;2.83;;
42832;SDS011;28479;51.478;5.692;2022-07-11T07:02:42;6.85;;;2.55;;
42832;SDS011;28479;51.478;5.692;2022-07-11T07:05:08;1.75;;;1.60;;
42832;SDS011;28479;51.478;5.692;2022-07-11T07:07:34;6.20;;;1.98;;
42832;SDS011;28479;51.478;5.692;2022-07-11T07:10:00;6.68;;;2.28;;
42832;SDS011;28479;51.478;5.692;2022-07-11T07:12:27;2.08;;;1.55;;
42832;SDS011;28479;51.478;5.692;2022-07-11T07:14:52;1.85;;;1.27;;
42832;SDS011;28479;51.478;5.692;2022-07-11T07:17:18;1.58;;;1.27;;
42832;SDS011;28479;51.478;5.692;2022-07-11T07:19:43;2.10;;;1.50;;
42832;SDS011;28479;51.478;5.692;2022-07-11T07:22:09;1.15;;;0.90;;
42832;SDS011;28479;51.478;5.692;2022-07-11T07:24:35;2.35;;;0.90;;
42832;SDS011;28479;51.478;5.692;2022-07-11T07:27:01;2.13;;;1.17;;
42832;SDS011;28479;51.478;5.692;2022-07-11T07:29:28;2.17;;;1.00;;
42832;SDS011;28479;51.478;5.692;2022-07-11T07:31:53;1.50;;;0.90;;
42832;SDS011;28479;51.478;5.692;2022-07-11T07:34:19;0.77;;;0.75;;
42832;SDS011;28479;51.478;5.692;2022-07-11T07:36:46;2.88;;;1.17;;
42832;SDS011;28479;51.478;5.692;2022-07-11T07:39:11;2.72;;;1.05;;
42832;SDS011;28479;51.478;5.692;2022-07-11T07:41:37;0.90;;;0.80;;
42832;SDS011;28479;51.478;5.692;2022-07-11T07:44:03;0.80;;;0.77;;
42832;SDS011;28479;51.478;5.692;2022-07-11T07:46:28;2.95;;;1.60;;
42832;SDS011;28479;51.478;5.692;2022-07-11T07:48:54;3.15;;;1.38;;
42832;SDS011;28479;51.478;5.692;2022-07-11T07:51:20;2.72;;;1.60;;
42832;SDS011;28479;51.478;5.692;2022-07-11T07:53:46;2.35;;;1.55;;
42832;SDS011;28479;51.478;5.692;2022-07-11T07:56:12;1.83;;;1.15;;
42832;SDS011;28479;51.478;5.692;2022-07-11T07:58:38;1.27;;;1.10;;
42832;SDS011;28479;51.478;5.692;2022-07-11T08:01:04;4.45;;;1.27;;
42832;SDS011;28479;51.478;5.692;2022-07-11T08:03:49;2.38;;;1.55;;
42832;SDS011;28479;51.478;5.692;2022-07-11T08:06:14;2.38;;;1.20;;
42832;SDS011;28479;51.478;5.692;2022-07-11T08:08:40;10.35;;;1.52;;
42832;SDS011;28479;51.478;5.692;2022-07-11T08:11:05;3.88;;;1.30;;
42832;SDS011;28479;51.478;5.692;2022-07-11T08:13:31;3.33;;;1.20;;
42832;SDS011;28479;51.478;5.692;2022-07-11T08:15:56;1.70;;;1.15;;
42832;SDS011;28479;51.478;5.692;2022-07-11T08:18:22;2.00;;;1.52;;
42832;SDS011;28479;51.478;5.692;2022-07-11T08:20:48;2.88;;;1.45;;
42832;SDS011;28479;51.478;5.692;2022-07-11T08:23:13;3.05;;;1.23;;
42832;SDS011;28479;51.478;5.692;2022-07-11T08:25:39;1.55;;;1.20;;
42832;SDS011;28479;51.478;5.692;2022-07-11T08:28:05;1.65;;;1.23;;
42832;SDS011;28479;51.478;5.692;2022-07-11T08:30:31;2.50;;;1.25;;
42832;SDS011;28479;51.478;5.692;2022-07-11T08:32:57;3.38;;;1.52;;
42832;SDS011;28479;51.478;5.692;2022-07-11T08:35:23;0.82;;;0.82;;
42832;SDS011;28479;51.478;5.692;2022-07-11T08:37:49;1.63;;;1.17;;
42832;SDS011;28479;51.478;5.692;2022-07-11T08:40:14;0.80;;;0.80;;
42832;SDS011;28479;51.478;5.692;2022-07-11T08:42:41;1.00;;;0.90;;
42832;SDS011;28479;51.478;5.692;2022-07-11T08:45:14;3.17;;;0.98;;
42832;SDS011;28479;51.478;5.692;2022-07-11T08:47:41;1.83;;;1.25;;
42832;SDS011;28479;51.478;5.692;2022-07-11T08:50:07;1.48;;;0.80;;
42832;SDS011;28479;51.478;5.692;2022-07-11T08:52:35;1.88;;;0.90;;
42832;SDS011;28479;51.478;5.692;2022-07-11T08:55:02;1.55;;;1.13;;
42832;SDS011;28479;51.478;5.692;2022-07-11T08:57:32;1.05;;;0.93;;
42832;SDS011;28479;51.478;5.692;2022-07-11T08:59:58;1.15;;;0.85;;
42832;SDS011;28479;51.478;5.692;2022-07-11T09:02:25;1.20;;;0.95;;
42832;SDS011;28479;51.478;5.692;2022-07-11T09:04:52;3.28;;;0.93;;
42832;SDS011;28479;51.478;5.692;2022-07-11T09:07:17;1.42;;;1.05;;
42832;SDS011;28479;51.478;5.692;2022-07-11T09:09:43;1.00;;;0.80;;
42832;SDS011;28479;51.478;5.692;2022-07-11T09:12:12;3.53;;;0.80;;
42832;SDS011;28479;51.478;5.692;2022-07-11T09:14:45;1.17;;;1.08;;
42832;SDS011;28479;51.478;5.692;2022-07-11T09:17:13;1.45;;;0.98;;
42832;SDS011;28479;51.478;5.692;2022-07-11T09:19:39;5.55;;;1.00;;
42832;SDS011;28479;51.478;5.692;2022-07-11T09:24:57;1.30;;;0.90;;
42832;SDS011;28479;51.478;5.692;2022-07-11T09:27:46;0.70;;;0.70;;
42832;SDS011;28479;51.478;5.692;2022-07-11T09:32:55;0.85;;;0.80;;
42832;SDS011;28479;51.478;5.692;2022-07-11T09:35:32;1.65;;;1.20;;
42832;SDS011;28479;51.478;5.692;2022-07-11T09:38:04;2.42;;;1.48;;
42832;SDS011;28479;51.478;5.692;2022-07-11T09:40:31;1.80;;;1.00;;
42832;SDS011;28479;51.478;5.692;2022-07-11T09:42:57;1.40;;;1.30;;
42832;SDS011;28479;51.478;5.692;2022-07-11T09:45:25;2.08;;;1.30;;
42832;SDS011;28479;51.478;5.692;2022-07-11T09:47:53;6.20;;;1.63;;
42832;SDS011;28479;51.478;5.692;2022-07-11T09:50:22;2.33;;;1.02;;
42832;SDS011;28479;51.478;5.692;2022-07-11T09:55:25;1.90;;;1.23;;
42832;SDS011;28479;51.478;5.692;2022-07-11T09:57:51;1.80;;;1.67;;
42832;SDS011;28479;51.478;5.692;2022-07-11T10:00:18;2.03;;;1.40;;
42832;SDS011;28479;51.478;5.692;2022-07-11T10:02:43;3.72;;;1.42;;
42832;SDS011;28479;51.478;5.692;2022-07-11T10:05:10;2.47;;;1.85;;
42832;SDS011;28479;51.478;5.692;2022-07-11T10:07:36;3.33;;;1.35;;
42832;SDS011;28479;51.478;5.692;2022-07-11T10:10:03;2.70;;;1.77;;
42832;SDS011;28479;51.478;5.692;2022-07-11T10:12:30;3.28;;;1.63;;
42832;SDS011;28479;51.478;5.692;2022-07-11T10:15:00;5.47;;;2.33;;
42832;SDS011;28479;51.478;5.692;2022-07-11T10:23:06;3.97;;;1.90;;
42832;SDS011;28479;51.478;5.692;2022-07-11T10:28:13;3.05;;;1.67;;
42832;SDS011;28479;51.478;5.692;2022-07-11T10:30:54;3.38;;;2.05;;
42832;SDS011;28479;51.478;5.692;2022-07-11T10:33:22;2.95;;;1.70;;
42832;SDS011;28479;51.478;5.692;2022-07-11T10:35:48;5.05;;;2.47;;
42832;SDS011;28479;51.478;5.692;2022-07-11T10:38:15;3.10;;;2.05;;
42832;SDS011;28479;51.478;5.692;2022-07-11T10:40:46;4.43;;;2.10;;
42832;SDS011;28479;51.478;5.692;2022-07-11T10:43:14;6.95;;;2.53;;
42832;SDS011;28479;51.478;5.692;2022-07-11T10:48:28;3.85;;;2.53;;
42832;SDS011;28479;51.478;5.692;2022-07-11T10:53:40;3.80;;;2.05;;
42832;SDS011;28479;51.478;5.692;2022-07-11T11:01:32;3.20;;;2.08;;
42832;SDS011;28479;51.478;5.692;2022-07-11T11:07:05;4.40;;;1.92;;
42832;SDS011;28479;51.478;5.692;2022-07-11T11:09:37;5.72;;;1.85;;
42832;SDS011;28479;51.478;5.692;2022-07-11T11:12:03;2.50;;;1.50;;
42832;SDS011;28479;51.478;5.692;2022-07-11T11:14:29;4.10;;;1.90;;
42832;SDS011;28479;51.478;5.692;2022-07-11T11:16:56;7.55;;;2.33;;
42832;SDS011;28479;51.478;5.692;2022-07-11T11:20:04;2.25;;;1.60;;
42832;SDS011;28479;51.478;5.692;2022-07-11T11:22:30;3.58;;;1.75;;
42832;SDS011;28479;51.478;5.692;2022-07-11T11:24:56;2.03;;;1.55;;
42832;SDS011;28479;51.478;5.692;2022-07-11T11:27:23;5.35;;;1.60;;
42832;SDS011;28479;51.478;5.692;2022-07-11T11:29:54;1.80;;;1.40;;
42832;SDS011;28479;51.478;5.692;2022-07-11T11:32:21;4.75;;;1.60;;
42832;SDS011;28479;51.478;5.692;2022-07-11T11:34:47;2.05;;;1.40;;
42832;SDS011;28479;51.478;5.692;2022-07-11T11:37:14;1.40;;;1.10;;
42832;SDS011;28479;51.478;5.692;2022-07-11T11:39:41;1.80;;;1.08;;
42832;SDS011;28479;51.478;5.692;2022-07-11T11:42:14;1.77;;;1.00;;
42832;SDS011;28479;51.478;5.692;2022-07-11T11:44:51;1.10;;;0.95;;
42832;SDS011;28479;51.478;5.692;2022-07-11T11:47:18;1.52;;;0.98;;
42832;SDS011;28479;51.478;5.692;2022-07-11T11:49:45;2.58;;;1.40;;
42832;SDS011;28479;51.478;5.692;2022-07-11T11:52:12;1.75;;;0.93;;
42832;SDS011;28479;51.478;5.692;2022-07-11T11:54:38;4.35;;;1.27;;
42832;SDS011;28479;51.478;5.692;2022-07-11T11:57:07;1.45;;;1.08;;
42832;SDS011;28479;51.478;5.692;2022-07-11T11:59:36;3.50;;;1.30;;
42832;SDS011;28479;51.478;5.692;2022-07-11T12:02:03;4.43;;;1.23;;
42832;SDS011;28479;51.478;5.692;2022-07-11T12:04:34;2.83;;;1.50;;
42832;SDS011;28479;51.478;5.692;2022-07-11T12:07:01;1.98;;;1.38;;
42832;SDS011;28479;51.478;5.692;2022-07-11T12:09:28;1.55;;;1.45;;
42832;SDS011;28479;51.478;5.692;2022-07-11T12:12:17;1.08;;;0.93;;
42832;SDS011;28479;51.478;5.692;2022-07-11T12:15:02;2.63;;;1.67;;
42832;SDS011;28479;51.478;5.692;2022-07-11T12:17:29;1.20;;;1.10;;
42832;SDS011;28479;51.478;5.692;2022-07-11T12:19:55;1.30;;;1.08;;
42832;SDS011;28479;51.478;5.692;2022-07-11T12:22:21;2.00;;;1.20;;
42832;SDS011;28479;51.478;5.692;2022-07-11T12:24:47;1.10;;;0.90;;
42832;SDS011;28479;51.478;5.692;2022-07-11T12:27:22;2.10;;;1.58;;
42832;SDS011;28479;51.478;5.692;2022-07-11T12:29:49;3.28;;;1.50;;
42832;SDS011;28479;51.478;5.692;2022-07-11T12:32:16;1.85;;;1.20;;
42832;SDS011;28479;51.478;5.692;2022-07-11T12:34:43;1.85;;;1.20;;
42832;SDS011;28479;51.478;5.692;2022-07-11T12:37:12;5.90;;;1.65;;
42832;SDS011;28479;51.478;5.692;2022-07-11T12:39:39;2.95;;;1.73;;
42832;SDS011;28479;51.478;5.692;2022-07-11T12:42:49;2.95;;;1.65;;
42832;SDS011;28479;51.478;5.692;2022-07-11T12:45:11;1.73;;;1.55;;
42832;SDS011;28479;51.478;5.692;2022-07-11T12:47:41;3.08;;;1.70;;
42832;SDS011;28479;51.478;5.692;2022-07-11T12:52:39;2.72;;;1.38;;
42832;SDS011;28479;51.478;5.692;2022-07-11T12:55:06;2.15;;;1.60;;
42832;SDS011;28479;51.478;5.692;2022-07-11T12:57:38;2.33;;;1.58;;
42832;SDS011;28479;51.478;5.692;2022-07-11T13:00:13;2.97;;;1.60;;
42832;SDS011;28479;51.478;5.692;2022-07-11T13:02:50;2.80;;;1.90;;
42832;SDS011;28479;51.478;5.692;2022-07-11T13:05:15;2.13;;;1.70;;
42832;SDS011;28479;51.478;5.692;2022-07-11T13:07:41;2.67;;;1.60;;
42832;SDS011;28479;51.478;5.692;2022-07-11T13:10:26;2.17;;;1.50;;
42832;SDS011;28479;51.478;5.692;2022-07-11T13:13:15;2.08;;;1.88;;
42832;SDS011;28479;51.478;5.692;2022-07-11T13:15:42;1.95;;;1.48;;
42832;SDS011;28479;51.478;5.692;2022-07-11T13:18:08;1.55;;;1.27;;
42832;SDS011;28479;51.478;5.692;2022-07-11T13:20:34;1.83;;;1.30;;
42832;SDS011;28479;51.478;5.692;2022-07-11T13:23:01;10.43;;;1.65;;
42832;SDS011;28479;51.478;5.692;2022-07-11T13:25:27;1.63;;;1.33;;
42832;SDS011;28479;51.478;5.692;2022-07-11T13:27:53;1.20;;;1.10;;
42832;SDS011;28479;51.478;5.692;2022-07-11T13:30:20;1.58;;;1.35;;
42832;SDS011;28479;51.478;5.692;2022-07-11T13:32:50;1.95;;;1.50;;
42832;SDS011;28479;51.478;5.692;2022-07-11T13:35:16;1.23;;;0.98;;
42832;SDS011;28479;51.478;5.692;2022-07-11T13:37:43;6.68;;;1.58;;
42832;SDS011;28479;51.478;5.692;2022-07-11T13:40:10;1.38;;;1.05;;
42832;SDS011;28479;51.478;5.692;2022-07-11T13:42:38;1.50;;;1.02;;
42832;SDS011;28479;51.478;5.692;2022-07-11T13:45:05;1.98;;;1.20;;
42832;SDS011;28479;51.478;5.692;2022-07-11T13:47:33;2.25;;;1.00;;
42832;SDS011;28479;51.478;5.692;2022-07-11T13:49:59;1.58;;;1.20;;
42832;SDS011;28479;51.478;5.692;2022-07-11T13:52:25;2.38;;;1.23;;
42832;SDS011;28479;51.478;5.692;2022-07-11T13:54:51;1.52;;;1.02;;
42832;SDS011;28479;51.478;5.692;2022-07-11T13:57:16;1.63;;;1.20;;
42832;SDS011;28479;51.478;5.692;2022-07-11T13:59:42;1.85;;;1.40;;
42832;SDS011;28479;51.478;5.692;2022-07-11T14:02:08;1.63;;;1.20;;
42832;SDS011;28479;51.478;5.692;2022-07-11T14:04:34;1.67;;;1.55;;
42832;SDS011;28479;51.478;5.692;2022-07-11T14:06:59;2.40;;;1.70;;
42832;SDS011;28479;51.478;5.692;2022-07-11T14:09:25;1.45;;;1.25;;
42832;SDS011;28479;51.478;5.692;2022-07-11T14:11:52;4.13;;;1.40;;
42832;SDS011;28479;51.478;5.692;2022-07-11T14:14:18;3.35;;;1.55;;
42832;SDS011;28479;51.478;5.692;2022-07-11T14:16:44;1.45;;;1.25;;
42832;SDS011;28479;51.478;5.692;2022-07-11T14:19:09;1.00;;;0.90;;
42832;SDS011;28479;51.478;5.692;2022-07-11T14:21:36;1.42;;;1.25;;
42832;SDS011;28479;51.478;5.692;2022-07-11T14:24:02;2.13;;;1.00;;
42832;SDS011;28479;51.478;5.692;2022-07-11T14:26:28;1.63;;;1.05;;
42832;SDS011;28479;51.478;5.692;2022-07-11T14:28:54;1.65;;;1.10;;
42832;SDS011;28479;51.478;5.692;2022-07-11T14:31:20;4.47;;;1.48;;
42832;SDS011;28479;51.478;5.692;2022-07-11T14:33:48;1.52;;;1.25;;
42832;SDS011;28479;51.478;5.692;2022-07-11T14:36:14;1.63;;;1.08;;
42832;SDS011;28479;51.478;5.692;2022-07-11T14:38:40;2.10;;;1.10;;
42832;SDS011;28479;51.478;5.692;2022-07-11T14:41:05;1.48;;;1.13;;
42832;SDS011;28479;51.478;5.692;2022-07-11T14:43:31;1.58;;;1.00;;
42832;SDS011;28479;51.478;5.692;2022-07-11T14:45:57;1.08;;;0.98;;
42832;SDS011;28479;51.478;5.692;2022-07-11T14:48:22;0.88;;;0.80;;
42832;SDS011;28479;51.478;5.692;2022-07-11T14:50:48;0.90;;;0.80;;
42832;SDS011;28479;51.478;5.692;2022-07-11T14:53:14;8.27;;;0.88;;
42832;SDS011;28479;51.478;5.692;2022-07-11T14:55:39;1.38;;;1.25;;
42832;SDS011;28479;51.478;5.692;2022-07-11T14:58:05;1.25;;;1.00;;
42832;SDS011;28479;51.478;5.692;2022-07-11T15:00:30;1.83;;;1.50;;
42832;SDS011;28479;51.478;5.692;2022-07-11T15:02:59;1.67;;;1.20;;
42832;SDS011;28479;51.478;5.692;2022-07-11T15:05:43;1.30;;;1.20;;
42832;SDS011;28479;51.478;5.692;2022-07-11T15:08:08;2.13;;;1.52;;
42832;SDS011;28479;51.478;5.692;2022-07-11T15:10:52;1.80;;;1.20;;
42832;SDS011;28479;51.478;5.692;2022-07-11T15:13:36;1.75;;;1.60;;
42832;SDS011;28479;51.478;5.692;2022-07-11T15:16:02;1.92;;;1.20;;
42832;SDS011;28479;51.478;5.692;2022-07-11T15:18:28;1.40;;;1.00;;